Buoy 41936

sailwx.info

Track history (hours):
 
Tides and Currents Weather Stations Pressure Air Temp Water Temp Dewpoint Dewpoint Depression Visibility Wind Speed Wind Dir Waves Ship Positions

Drifting buoy 41936

Last reported at 2015-Apr-19 01:00 UTC. Time now 2015-Apr-19 07:57 UTC.
Position N 34°22' W 056°16'.

Barometer 1017.1 mb

Date/timePositionNaut miles runAvg speedWind from/ knotsBaromVisibWave heightAir tempDewpointWater temp
2015-Apr-19 01:00N 34°22' W 056°16'13 0.9 1017.1
2015-Apr-18 11:00N 34°24' W 056°01'6 0.4 1023.6
2015-Apr-17 22:00N 34°22' W 055°54'0 0.0 1026.5
2015-Apr-17 21:00N 34°22' W 055°54'3 1.4 1026.7
2015-Apr-17 19:00N 34°21' W 055°51'5 1.0 1026.5
2015-Apr-17 14:00N 34°22' W 055°45'0 0.0 1027.6
2015-Apr-17 13:00N 34°22' W 055°45'19 0.7 1027.6
2015-Apr-16 10:00N 34°36' W 055°30'2 1.5 1011.6
2015-Apr-16 09:00N 34°34' W 055°30'7 0.3 1011.4
2015-Apr-15 13:00N 34°30' W 055°23'2 1.1 1026.6
2015-Apr-15 11:00N 34°31' W 055°21'2 0.8 1026.6
2015-Apr-15 09:00N 34°31' W 055°19'1 0.7 1026.5
2015-Apr-15 08:00N 34°31' W 055°20'0 0.0 1026.0
2015-Apr-15 07:00N 34°31' W 055°20'8 0.9 1026.3
2015-Apr-14 22:00N 34°30' W 055°10'1 0.9 1028.6
2015-Apr-14 21:00N 34°31' W 055°09'3 1.1 1028.5
2015-Apr-14 18:00N 34°31' W 055°06'0 0.0 1029.8
2015-Apr-14 17:00N 34°31' W 055°06'4 2.1 1029.9
2015-Apr-14 15:00N 34°32' W 055°01'4 0.9 1030.7
2015-Apr-14 11:00N 34°33' W 054°57'2 1.6 1030.3
2015-Apr-14 10:00N 34°33' W 054°55'2 1.2 1030.1
2015-Apr-14 08:00N 34°34' W 054°52'0 0.0 1029.3
2015-Apr-14 07:00N 34°34' W 054°52'10 1.0 1029.1
2015-Apr-13 21:00N 34°38' W 054°41'0 0.0 1028.3
2015-Apr-13 20:00N 34°38' W 054°41'15 0.8 1027.8
2015-Apr-13 00:00N 34°49' W 054°27'5 0.5 1020.4
2015-Apr-12 15:00N 34°53' W 054°24'0 0.0 1021.2
2015-Apr-12 14:00N 34°53' W 054°24'0 0.0 1021.7
2015-Apr-12 13:00N 34°53' W 054°24'2 0.8 1021.8
2015-Apr-12 10:00N 34°55' W 054°25'2 0.6 1021.4
2015-Apr-12 07:00N 34°57' W 054°25'0 0.0 1020.6
2015-Apr-12 06:00N 34°57' W 054°25'5 1.1 1020.9
2015-Apr-12 01:00N 35°02' W 054°25'1 0.3 1022.6
2015-Apr-11 21:00N 35°04' W 054°26'3 0.9 1021.7
2015-Apr-11 18:00N 35°05' W 054°29'0 0.0 1021.9
2015-Apr-11 17:00N 35°05' W 054°29'0 0.0 1022.4
2015-Apr-11 15:00N 35°05' W 054°29'5 1.0 1023.0
2015-Apr-11 10:00N 35°09' W 054°33'5 0.6 1022.6
2015-Apr-11 02:00N 35°12' W 054°37'0 0.0 1023.9
2015-Apr-11 01:00N 35°12' W 054°37'0 0.1 1024.1
2015-Apr-10 22:00N 35°13' W 054°36'2 0.8 1022.7
2015-Apr-10 20:00N 35°13' W 054°38'4 0.7 1022.1
2015-Apr-10 14:00N 35°16' W 054°42'0 0.0 1022.2
2015-Apr-10 13:00N 35°16' W 054°42'3 1.5 1021.9
2015-Apr-10 11:00N 35°19' W 054°43'5 4.8 1021.2
2015-Apr-10 10:00N 35°23' W 054°46'11 1.1 1021.3
2015-Apr-10 00:00N 35°29' W 054°57'22 0.9 1024.4
2015-Apr-09 01:00N 35°39' W 055°21'   1026.9
Track history (hours):
 
Tides and Currents Weather Stations Pressure Air Temp Water Temp Dewpoint Dewpoint Depression Visibility Wind Speed Wind Dir Waves Ship Positions

Drifting buoy 41936

Last reported at 2015-Apr-19 01:00 UTC. Time now 2015-Apr-19 07:57 UTC.
Position N 34°22' W 056°16'.

Barometer 1017.1 mb

Date/timePositionNaut miles runAvg speedWind from/ knotsBaromVisibWave heightAir tempDewpointWater temp
2015-Apr-19 01:00N 34°22' W 056°16'13 0.9 1017.1
2015-Apr-18 11:00N 34°24' W 056°01'6 0.4 1023.6
2015-Apr-17 22:00N 34°22' W 055°54'0 0.0 1026.5
2015-Apr-17 21:00N 34°22' W 055°54'3 1.4 1026.7
2015-Apr-17 19:00N 34°21' W 055°51'5 1.0 1026.5
2015-Apr-17 14:00N 34°22' W 055°45'0 0.0 1027.6
2015-Apr-17 13:00N 34°22' W 055°45'19 0.7 1027.6
2015-Apr-16 10:00N 34°36' W 055°30'2 1.5 1011.6
2015-Apr-16 09:00N 34°34' W 055°30'7 0.3 1011.4
2015-Apr-15 13:00N 34°30' W 055°23'2 1.1 1026.6
2015-Apr-15 11:00N 34°31' W 055°21'2 0.8 1026.6
2015-Apr-15 09:00N 34°31' W 055°19'1 0.7 1026.5
2015-Apr-15 08:00N 34°31' W 055°20'0 0.0 1026.0
2015-Apr-15 07:00N 34°31' W 055°20'8 0.9 1026.3
2015-Apr-14 22:00N 34°30' W 055°10'1 0.9 1028.6
2015-Apr-14 21:00N 34°31' W 055°09'3 1.1 1028.5
2015-Apr-14 18:00N 34°31' W 055°06'0 0.0 1029.8
2015-Apr-14 17:00N 34°31' W 055°06'4 2.1 1029.9
2015-Apr-14 15:00N 34°32' W 055°01'4 0.9 1030.7
2015-Apr-14 11:00N 34°33' W 054°57'2 1.6 1030.3
2015-Apr-14 10:00N 34°33' W 054°55'2 1.2 1030.1
2015-Apr-14 08:00N 34°34' W 054°52'0 0.0 1029.3
2015-Apr-14 07:00N 34°34' W 054°52'10 1.0 1029.1
2015-Apr-13 21:00N 34°38' W 054°41'0 0.0 1028.3
2015-Apr-13 20:00N 34°38' W 054°41'15 0.8 1027.8
2015-Apr-13 00:00N 34°49' W 054°27'5 0.5 1020.4
2015-Apr-12 15:00N 34°53' W 054°24'0 0.0 1021.2
2015-Apr-12 14:00N 34°53' W 054°24'0 0.0 1021.7
2015-Apr-12 13:00N 34°53' W 054°24'2 0.8 1021.8
2015-Apr-12 10:00N 34°55' W 054°25'2 0.6 1021.4
2015-Apr-12 07:00N 34°57' W 054°25'0 0.0 1020.6
2015-Apr-12 06:00N 34°57' W 054°25'5 1.1 1020.9
2015-Apr-12 01:00N 35°02' W 054°25'1 0.3 1022.6
2015-Apr-11 21:00N 35°04' W 054°26'3 0.9 1021.7
2015-Apr-11 18:00N 35°05' W 054°29'0 0.0 1021.9
2015-Apr-11 17:00N 35°05' W 054°29'0 0.0 1022.4
2015-Apr-11 15:00N 35°05' W 054°29'5 1.0 1023.0
2015-Apr-11 10:00N 35°09' W 054°33'5 0.6 1022.6
2015-Apr-11 02:00N 35°12' W 054°37'0 0.0 1023.9
2015-Apr-11 01:00N 35°12' W 054°37'0 0.1 1024.1
2015-Apr-10 22:00N 35°13' W 054°36'2 0.8 1022.7
2015-Apr-10 20:00N 35°13' W 054°38'4 0.7 1022.1
2015-Apr-10 14:00N 35°16' W 054°42'0 0.0 1022.2
2015-Apr-10 13:00N 35°16' W 054°42'3 1.5 1021.9
2015-Apr-10 11:00N 35°19' W 054°43'5 4.8 1021.2
2015-Apr-10 10:00N 35°23' W 054°46'11 1.1 1021.3
2015-Apr-10 00:00N 35°29' W 054°57'22 0.9 1024.4
2015-Apr-09 01:00N 35°39' W 055°21'   1026.9

Dump ship's entire track history